createdAt,value
2018-06-24T00:00:49.287Z,13.17
2018-06-24T00:01:49.264Z,13.17
2018-06-24T00:02:49.294Z,13.17
2018-06-24T00:03:49.287Z,13.23
2018-06-24T00:04:49.231Z,13.19
2018-06-24T00:05:49.278Z,13.25
2018-06-24T00:06:49.198Z,13.12
2018-06-24T00:07:49.188Z,13.10
2018-06-24T00:08:49.215Z,13.11
2018-06-24T00:09:49.174Z,13.15
2018-06-24T00:10:49.171Z,13.10
2018-06-24T00:11:49.148Z,13.11
2018-06-24T00:12:49.163Z,13.10
2018-06-24T00:13:49.182Z,13.08
2018-06-24T00:14:49.119Z,13.03
2018-06-24T00:15:49.102Z,13.10
2018-06-24T00:16:49.090Z,13.05
2018-06-24T00:17:49.086Z,13.10
2018-06-24T00:18:49.064Z,13.07
2018-06-24T00:19:49.060Z,13.10
2018-06-24T00:20:49.028Z,13.05
2018-06-24T00:21:49.029Z,13.12
2018-06-24T00:22:49.008Z,13.08
2018-06-24T00:23:49.009Z,13.04
2018-06-24T00:24:49.022Z,13.01
2018-06-24T00:25:48.983Z,12.95
2018-06-24T00:26:48.970Z,12.92
2018-06-24T00:27:48.956Z,12.90
2018-06-24T00:28:48.941Z,12.93
2018-06-24T00:29:48.934Z,12.95
2018-06-24T00:30:48.950Z,12.87
2018-06-24T00:31:48.902Z,12.86
2018-06-24T00:32:48.879Z,12.82
2018-06-24T00:33:48.885Z,12.93
2018-06-24T00:34:48.904Z,12.77
2018-06-24T00:35:49.035Z,12.78
2018-06-24T00:36:48.914Z,12.83
2018-06-24T00:37:48.842Z,12.82
2018-06-24T00:38:48.818Z,12.90
2018-06-24T00:39:48.813Z,12.77
2018-06-24T00:40:48.786Z,12.82
2018-06-24T00:41:48.809Z,12.78
2018-06-24T00:42:48.771Z,12.77
2018-06-24T00:43:48.757Z,12.79
2018-06-24T00:44:48.744Z,12.82
2018-06-24T00:45:48.750Z,12.79
2018-06-24T00:46:48.710Z,12.79
2018-06-24T00:47:48.716Z,12.78
2018-06-24T00:48:48.687Z,12.72
2018-06-24T00:49:48.678Z,12.75
2018-06-24T00:50:48.685Z,12.72
2018-06-24T00:51:48.676Z,12.74
2018-06-24T00:52:48.631Z,12.72
2018-06-24T00:53:48.760Z,12.78
2018-06-24T00:54:48.616Z,12.75
2018-06-24T00:55:48.610Z,12.72
2018-06-24T00:56:48.589Z,12.74
2018-06-24T00:57:48.593Z,12.78
2018-06-24T00:58:48.564Z,12.79
2018-06-24T00:59:48.559Z,12.75
2018-06-24T01:00:48.531Z,12.74
2018-06-24T01:01:48.525Z,12.74
2018-06-24T01:02:48.553Z,12.71
2018-06-24T01:03:48.505Z,12.72
2018-06-24T01:04:48.489Z,12.70
2018-06-24T01:05:48.477Z,12.72
2018-06-24T01:06:48.462Z,12.68
2018-06-24T01:07:48.455Z,12.71
2018-06-24T01:08:48.438Z,12.65
2018-06-24T01:09:48.432Z,12.56
2018-06-24T01:10:48.414Z,12.57
2018-06-24T01:11:48.430Z,12.60
2018-06-24T01:12:48.385Z,12.60
2018-06-24T01:13:48.410Z,12.57
2018-06-24T01:14:48.365Z,12.60
2018-06-24T01:15:48.346Z,12.56
2018-06-24T01:16:48.342Z,12.54
2018-06-24T01:17:48.323Z,12.56
2018-06-24T01:18:48.395Z,12.50
2018-06-24T01:19:48.306Z,12.52
2018-06-24T01:20:48.280Z,12.46
2018-06-24T01:21:48.263Z,12.45
2018-06-24T01:22:48.258Z,12.47
2018-06-24T01:23:48.237Z,12.49
2018-06-24T01:24:48.231Z,12.46
2018-06-24T01:25:48.215Z,12.35
2018-06-24T01:26:48.206Z,12.42
2018-06-24T01:27:48.187Z,12.37
2018-06-24T01:28:48.192Z,12.39
2018-06-24T01:29:48.234Z,12.37
2018-06-24T01:30:48.158Z,12.39
2018-06-24T01:31:48.146Z,12.39
2018-06-24T01:32:48.140Z,12.41
2018-06-24T01:33:48.119Z,12.35
2018-06-24T01:34:48.104Z,12.37
2018-06-24T01:35:48.119Z,12.37
2018-06-24T01:36:48.070Z,12.35
2018-06-24T01:37:48.054Z,12.37
2018-06-24T01:38:48.042Z,12.31
2018-06-24T01:39:48.044Z,12.31
2018-06-24T01:40:48.056Z,12.29
2018-06-24T01:41:48.012Z,12.29
2018-06-24T01:42:48.006Z,12.28
2018-06-24T01:43:47.998Z,12.28
2018-06-24T01:44:48.010Z,12.24
2018-06-24T01:45:47.950Z,12.28
2018-06-24T01:46:47.960Z,12.34
2018-06-24T01:47:47.939Z,12.29
2018-06-24T01:48:47.920Z,12.35
2018-06-24T01:49:47.906Z,12.41
2018-06-24T01:50:47.896Z,12.23
2018-06-24T01:51:47.951Z,12.38
2018-06-24T01:52:47.880Z,12.28
2018-06-24T01:53:47.861Z,12.38
2018-06-24T01:54:47.847Z,12.42
2018-06-24T01:55:47.832Z,12.38
2018-06-24T01:56:47.817Z,12.42
2018-06-24T01:57:47.839Z,12.42
2018-06-24T01:58:47.793Z,12.41
2018-06-24T01:59:47.771Z,12.52
2018-06-24T02:00:47.772Z,12.42
2018-06-24T02:01:47.750Z,12.49
2018-06-24T02:02:47.763Z,12.53
2018-06-24T02:03:47.730Z,12.60
2018-06-24T02:04:47.718Z,12.56
2018-06-24T02:05:47.700Z,12.59
2018-06-24T02:06:47.846Z,12.59
2018-06-24T02:07:47.680Z,12.59
2018-06-24T02:08:47.663Z,12.65
2018-06-24T02:09:47.655Z,12.59
2018-06-24T02:10:47.638Z,12.57
2018-06-24T02:11:47.620Z,12.57
2018-06-24T02:12:47.644Z,12.57
2018-06-24T02:13:47.607Z,12.56
2018-06-24T02:14:47.591Z,12.45
2018-06-24T02:15:47.578Z,12.50
2018-06-24T02:16:47.553Z,12.47
2018-06-24T02:17:47.580Z,12.42
2018-06-24T02:18:47.569Z,12.52
2018-06-24T02:19:47.532Z,12.38
2018-06-24T02:20:47.514Z,12.49
2018-06-24T02:21:47.496Z,12.47
2018-06-24T02:22:47.492Z,12.42
2018-06-24T02:23:47.483Z,12.38
2018-06-24T02:24:47.462Z,12.42
2018-06-24T02:25:47.480Z,12.45
2018-06-24T02:26:47.435Z,12.41
2018-06-24T02:27:47.428Z,12.49
2018-06-24T02:28:47.411Z,12.53
2018-06-24T02:29:47.407Z,12.49
2018-06-24T02:30:47.569Z,12.39
2018-06-24T02:31:47.366Z,12.41
2018-06-24T02:32:47.360Z,12.39
2018-06-24T02:33:47.342Z,12.57
2018-06-24T02:34:47.339Z,12.52
2018-06-24T02:35:47.451Z,12.62
2018-06-24T02:36:47.331Z,12.53
2018-06-24T02:37:47.304Z,12.56
2018-06-24T02:38:47.288Z,12.53
2018-06-24T02:39:47.272Z,12.38
2018-06-24T02:40:47.254Z,12.42
2018-06-24T02:41:47.255Z,12.39
2018-06-24T02:42:47.222Z,12.49
2018-06-24T02:43:47.221Z,12.42
2018-06-24T02:44:47.203Z,12.45
2018-06-24T02:45:47.184Z,12.38
2018-06-24T02:46:47.236Z,12.37
2018-06-24T02:47:47.164Z,12.38
2018-06-24T02:48:47.159Z,12.29
2018-06-24T02:49:47.148Z,12.38
2018-06-24T02:50:47.126Z,12.41
2018-06-24T02:51:47.114Z,12.38
2018-06-24T02:52:47.132Z,12.39
2018-06-24T02:53:47.293Z,12.35
2018-06-24T02:54:47.079Z,12.38
2018-06-24T02:55:47.070Z,12.29
2018-06-24T02:56:47.052Z,12.38
2018-06-24T02:57:47.101Z,12.37
2018-06-24T02:58:47.025Z,12.39
2018-06-24T02:59:47.017Z,12.35
2018-06-24T03:00:47.007Z,12.37
2018-06-24T03:01:46.979Z,12.47
2018-06-24T03:02:46.975Z,12.45
2018-06-24T03:03:46.976Z,12.46
2018-06-24T03:04:46.959Z,12.35
2018-06-24T03:05:46.925Z,12.37
2018-06-24T03:06:46.919Z,12.38
2018-06-24T03:07:46.909Z,12.35
2018-06-24T03:08:46.924Z,12.37
2018-06-24T03:09:47.035Z,12.35
2018-06-24T03:10:46.862Z,12.38
2018-06-24T03:11:46.862Z,12.46
2018-06-24T03:12:46.846Z,12.45
2018-06-24T03:13:46.837Z,12.38
2018-06-24T03:14:46.811Z,12.38
2018-06-24T03:15:46.819Z,12.42
2018-06-24T03:16:46.855Z,12.39
2018-06-24T03:17:46.779Z,12.52
2018-06-24T03:18:46.787Z,12.42
2018-06-24T03:19:46.764Z,12.54
2018-06-24T03:20:46.739Z,12.59
2018-06-24T03:21:46.731Z,12.56
2018-06-24T03:22:46.715Z,12.53
2018-06-24T03:23:46.771Z,12.57
2018-06-24T03:24:46.682Z,12.53
2018-06-24T03:25:46.687Z,12.56
2018-06-24T03:26:46.673Z,12.56
2018-06-24T03:27:46.645Z,12.52
2018-06-24T03:28:46.640Z,12.47
2018-06-24T03:29:46.661Z,12.57
2018-06-24T03:30:46.614Z,12.59
2018-06-24T03:31:46.604Z,12.56
2018-06-24T03:32:46.625Z,12.59
2018-06-24T03:33:46.574Z,12.56
2018-06-24T03:34:46.595Z,12.60
2018-06-24T03:35:46.547Z,12.60
2018-06-24T03:36:46.541Z,12.57
2018-06-24T03:37:46.536Z,12.53
2018-06-24T03:38:46.501Z,12.54
2018-06-24T03:39:46.520Z,12.57
2018-06-24T03:40:46.492Z,12.60
2018-06-24T03:41:46.472Z,12.57
2018-06-24T03:42:46.456Z,12.59
2018-06-24T03:43:46.433Z,12.57
2018-06-24T03:44:46.461Z,12.57
2018-06-24T03:45:46.423Z,12.62
2018-06-24T03:46:46.398Z,12.59
2018-06-24T03:47:46.393Z,12.53
2018-06-24T03:48:46.381Z,12.59
2018-06-24T03:49:46.405Z,12.52
2018-06-24T03:50:46.357Z,12.56
2018-06-24T03:51:46.344Z,12.59
2018-06-24T03:52:46.331Z,12.56
2018-06-24T03:53:46.311Z,12.52
2018-06-24T03:54:46.332Z,12.54
2018-06-24T03:55:46.291Z,12.54
2018-06-24T03:56:46.274Z,12.56
2018-06-24T03:57:46.275Z,12.59
2018-06-24T03:58:46.247Z,12.64
2018-06-24T03:59:46.273Z,12.65
2018-06-24T04:00:46.235Z,12.65
2018-06-24T04:01:46.222Z,12.70
2018-06-24T04:02:46.208Z,12.64
2018-06-24T04:03:46.187Z,12.77
2018-06-24T04:04:46.211Z,12.65
2018-06-24T04:05:46.173Z,12.60
2018-06-24T04:06:46.185Z,12.57
2018-06-24T04:07:46.142Z,12.62
2018-06-24T04:08:46.125Z,12.59
2018-06-24T04:09:46.256Z,12.62
2018-06-24T04:10:46.096Z,12.62
2018-06-24T04:11:46.082Z,12.56
2018-06-24T04:12:46.075Z,12.59
2018-06-24T04:13:46.057Z,12.62
2018-06-24T04:14:46.050Z,12.57
2018-06-24T04:15:46.050Z,12.59
2018-06-24T04:16:46.019Z,12.60
2018-06-24T04:17:46.014Z,12.59
2018-06-24T04:18:45.998Z,12.60
2018-06-24T04:19:46.020Z,12.67
2018-06-24T04:20:45.966Z,12.57
2018-06-24T04:21:45.963Z,12.60
2018-06-24T04:22:45.946Z,12.57
2018-06-24T04:23:45.932Z,12.54
2018-06-24T04:24:46.068Z,12.56
2018-06-24T04:25:45.978Z,12.59
2018-06-24T04:26:45.904Z,12.59
2018-06-24T04:27:45.887Z,12.52
2018-06-24T04:28:45.874Z,12.56
2018-06-24T04:29:45.855Z,12.57
2018-06-24T04:30:45.858Z,12.67
2018-06-24T04:31:45.833Z,12.52
2018-06-24T04:32:45.827Z,12.50
2018-06-24T04:33:45.809Z,12.47
2018-06-24T04:34:45.918Z,12.52
2018-06-24T04:35:45.792Z,12.52
2018-06-24T04:36:45.778Z,12.54
2018-06-24T04:37:45.771Z,12.56
2018-06-24T04:38:45.758Z,12.56
2018-06-24T04:39:45.735Z,12.60
2018-06-24T04:40:45.726Z,12.60
2018-06-24T04:41:45.739Z,12.64
2018-06-24T04:42:45.712Z,12.71
2018-06-24T04:43:45.688Z,12.75
2018-06-24T04:44:45.670Z,12.78
2018-06-24T04:45:45.657Z,12.68
2018-06-24T04:46:45.668Z,12.74
2018-06-24T04:47:45.636Z,12.70
2018-06-24T04:48:45.614Z,12.68
2018-06-24T04:49:45.606Z,12.77
2018-06-24T04:50:45.591Z,12.74
2018-06-24T04:51:45.714Z,12.68
2018-06-24T04:52:45.576Z,12.77
2018-06-24T04:53:45.549Z,12.72
2018-06-24T04:54:45.548Z,12.70
2018-06-24T04:55:45.536Z,12.75
2018-06-24T04:56:45.574Z,12.71
2018-06-24T04:57:45.499Z,12.71
2018-06-24T04:58:45.500Z,12.75
2018-06-24T04:59:45.487Z,12.82
2018-06-24T05:00:45.479Z,12.85
2018-06-24T05:01:45.461Z,12.78
2018-06-24T05:02:45.458Z,12.82
2018-06-24T05:03:45.432Z,12.79
2018-06-24T05:04:45.424Z,12.79
2018-06-24T05:05:45.397Z,12.79
2018-06-24T05:06:45.390Z,12.75
2018-06-24T05:07:45.420Z,12.79
2018-06-24T05:08:45.415Z,12.78
2018-06-24T05:09:45.359Z,12.87
2018-06-24T05:10:45.353Z,12.82
2018-06-24T05:11:45.336Z,12.78
2018-06-24T05:12:45.353Z,12.79
2018-06-24T05:13:45.306Z,12.82
2018-06-24T05:14:45.299Z,12.79
2018-06-24T05:15:45.293Z,12.82
2018-06-24T05:16:45.267Z,12.89
2018-06-24T05:17:45.257Z,12.90
2018-06-24T05:18:45.601Z,12.95
2018-06-24T05:19:45.233Z,12.95
2018-06-24T05:20:45.211Z,13.03
2018-06-24T05:21:45.207Z,12.96
2018-06-24T05:22:45.199Z,12.97
2018-06-24T05:23:45.179Z,12.93
2018-06-24T05:24:45.184Z,13.00
2018-06-24T05:25:45.160Z,12.92
2018-06-24T05:26:45.153Z,13.04
2018-06-24T05:27:45.162Z,13.10
2018-06-24T05:28:45.176Z,13.04
2018-06-24T05:29:45.114Z,13.11
2018-06-24T05:30:45.085Z,13.07
2018-06-24T05:31:45.080Z,13.08
2018-06-24T05:32:45.082Z,13.05
2018-06-24T05:33:45.061Z,13.07
2018-06-24T05:34:45.058Z,13.05
2018-06-24T05:35:45.035Z,13.08
2018-06-24T05:36:45.020Z,13.07
2018-06-24T05:37:45.077Z,13.11
2018-06-24T05:38:45.008Z,13.14
2018-06-24T05:39:44.994Z,13.10
2018-06-24T05:40:44.973Z,13.12
2018-06-24T05:41:44.967Z,13.20
2018-06-24T05:42:44.962Z,13.23
2018-06-24T05:43:44.961Z,13.22
2018-06-24T05:44:44.924Z,13.19
2018-06-24T05:45:44.914Z,13.20
2018-06-24T05:46:44.955Z,13.26
2018-06-24T05:47:44.901Z,13.20
2018-06-24T05:48:44.929Z,13.25
2018-06-24T05:49:44.865Z,13.25
2018-06-24T05:50:44.857Z,13.17
2018-06-24T05:51:44.842Z,13.25
2018-06-24T05:52:44.832Z,13.19
2018-06-24T05:53:44.851Z,13.19
2018-06-24T05:54:44.817Z,13.19
2018-06-24T05:55:44.797Z,13.15
2018-06-24T05:56:44.787Z,13.19
2018-06-24T05:57:44.785Z,13.28
2018-06-24T05:58:44.897Z,13.26
2018-06-24T05:59:44.747Z,13.29
2018-06-24T06:00:44.746Z,13.28
2018-06-24T06:01:44.716Z,13.28
2018-06-24T06:02:44.711Z,13.30
2018-06-24T06:03:44.694Z,13.30
2018-06-24T06:04:44.692Z,13.29
2018-06-24T06:05:44.669Z,13.29
2018-06-24T06:06:44.663Z,13.29
2018-06-24T06:07:44.656Z,13.33
2018-06-24T06:08:44.645Z,13.23
2018-06-24T06:09:44.632Z,13.26
2018-06-24T06:10:44.748Z,13.20
2018-06-24T06:11:44.663Z,13.22
2018-06-24T06:12:44.581Z,13.23
2018-06-24T06:13:44.579Z,13.15
2018-06-24T06:14:44.574Z,13.25
2018-06-24T06:15:44.559Z,13.23
2018-06-24T06:16:44.851Z,13.19
2018-06-24T06:17:44.533Z,13.22
2018-06-24T06:18:44.525Z,13.22
2018-06-24T06:19:44.514Z,13.22
2018-06-24T06:20:44.499Z,13.19
2018-06-24T06:21:44.522Z,13.25
2018-06-24T06:22:44.465Z,13.26
2018-06-24T06:23:44.459Z,13.19
2018-06-24T06:24:44.459Z,13.17
2018-06-24T06:25:44.462Z,13.29
2018-06-24T06:26:44.427Z,13.32
2018-06-24T06:27:44.412Z,13.28
2018-06-24T06:28:44.432Z,13.28
2018-06-24T06:29:44.395Z,13.26
2018-06-24T06:30:44.395Z,13.25
2018-06-24T06:31:44.363Z,13.28
2018-06-24T06:32:44.359Z,13.28
2018-06-24T06:33:44.341Z,13.30
2018-06-24T06:34:44.333Z,13.28
2018-06-24T06:35:44.343Z,13.28
2018-06-24T06:36:44.334Z,13.36
2018-06-24T06:37:44.283Z,13.29
2018-06-24T06:38:44.281Z,13.36
2018-06-24T06:39:44.266Z,13.30
2018-06-24T06:40:44.393Z,13.33
2018-06-24T06:41:44.238Z,13.28
2018-06-24T06:42:44.231Z,13.30
2018-06-24T06:43:44.219Z,13.38
2018-06-24T06:44:44.206Z,13.38
2018-06-24T06:45:44.313Z,13.32
2018-06-24T06:46:44.214Z,13.29
2018-06-24T06:47:44.179Z,13.33
2018-06-24T06:48:44.149Z,13.42
2018-06-24T06:49:44.147Z,13.29
2018-06-24T06:50:44.140Z,13.38
2018-06-24T06:51:44.273Z,13.36
2018-06-24T06:52:44.104Z,13.42
2018-06-24T06:53:44.092Z,13.41
2018-06-24T06:54:44.091Z,13.44
2018-06-24T06:55:44.062Z,13.42
2018-06-24T06:56:44.062Z,13.49
2018-06-24T06:57:44.072Z,13.52
2018-06-24T06:58:44.032Z,13.51
2018-06-24T06:59:44.014Z,13.51
2018-06-24T07:00:44.015Z,13.55
2018-06-24T07:01:43.997Z,13.57
2018-06-24T07:02:44.070Z,13.55
2018-06-24T07:03:43.974Z,13.48
2018-06-24T07:04:43.963Z,13.52
2018-06-24T07:05:43.965Z,13.62
2018-06-24T07:06:43.937Z,13.51
2018-06-24T07:07:43.930Z,13.60
2018-06-24T07:08:43.948Z,13.62
2018-06-24T07:09:43.909Z,13.67
2018-06-24T07:10:43.884Z,13.64
2018-06-24T07:11:43.882Z,13.70
2018-06-24T07:12:43.861Z,13.63
2018-06-24T07:13:43.890Z,13.70
2018-06-24T07:14:43.842Z,13.70
2018-06-24T07:15:43.825Z,13.73
2018-06-24T07:16:43.825Z,13.79
2018-06-24T07:17:43.813Z,13.73
2018-06-24T07:18:43.826Z,13.81
2018-06-24T07:19:43.794Z,13.75
2018-06-24T07:20:43.778Z,13.73
2018-06-24T07:21:43.763Z,13.87
2018-06-24T07:22:43.763Z,13.75
2018-06-24T07:23:43.741Z,13.84
2018-06-24T07:24:43.780Z,13.88
2018-06-24T07:25:43.720Z,13.85
2018-06-24T07:26:43.703Z,13.87
2018-06-24T07:27:43.709Z,13.81
2018-06-24T07:28:43.675Z,13.91
2018-06-24T07:29:43.671Z,13.87
2018-06-24T07:30:43.687Z,13.95
2018-06-24T07:31:43.647Z,13.96
2018-06-24T07:32:43.637Z,13.95
2018-06-24T07:33:43.799Z,14.00
2018-06-24T07:34:43.650Z,13.89
2018-06-24T07:35:43.607Z,13.99
2018-06-24T07:36:43.581Z,14.07
2018-06-24T07:37:43.577Z,14.02
2018-06-24T07:38:43.565Z,14.04
2018-06-24T07:39:43.593Z,14.10
2018-06-24T07:40:43.578Z,14.12
2018-06-24T07:41:43.534Z,14.02
2018-06-24T07:42:43.526Z,14.18
2018-06-24T07:43:43.506Z,14.14
2018-06-24T07:44:43.504Z,14.18
2018-06-24T07:45:43.507Z,14.15
2018-06-24T07:46:43.481Z,14.20
2018-06-24T07:47:43.689Z,14.18
2018-06-24T07:48:43.444Z,14.22
2018-06-24T07:49:43.439Z,14.24
2018-06-24T07:50:43.465Z,14.35
2018-06-24T07:51:43.419Z,14.35
2018-06-24T07:52:43.433Z,14.32
2018-06-24T07:53:43.391Z,14.28
2018-06-24T07:54:43.384Z,14.40
2018-06-24T07:55:43.407Z,14.25
2018-06-24T07:56:43.353Z,14.40
2018-06-24T07:57:43.354Z,14.25
2018-06-24T07:58:43.331Z,14.24
2018-06-24T07:59:43.329Z,14.24
2018-06-24T08:00:43.358Z,14.24
2018-06-24T08:01:43.312Z,14.20
2018-06-24T08:02:43.295Z,14.20
2018-06-24T08:03:43.275Z,14.33
2018-06-24T08:04:43.276Z,14.37
2018-06-24T08:05:43.261Z,14.35
2018-06-24T08:06:43.259Z,14.33
2018-06-24T08:07:43.243Z,14.39
2018-06-24T08:08:43.224Z,14.42
2018-06-24T08:09:43.236Z,14.45
2018-06-24T08:10:43.193Z,14.40
2018-06-24T08:11:43.696Z,14.35
2018-06-24T08:12:43.205Z,14.45
2018-06-24T08:13:43.164Z,14.55
2018-06-24T08:14:43.173Z,14.40
2018-06-24T08:15:43.143Z,14.37
2018-06-24T08:16:43.149Z,14.43
2018-06-24T08:17:43.155Z,14.40
2018-06-24T08:18:43.122Z,14.37
2018-06-24T08:19:43.107Z,14.46
2018-06-24T08:20:43.103Z,14.42
2018-06-24T08:21:43.075Z,14.43
2018-06-24T08:22:43.123Z,14.40
2018-06-24T08:23:43.058Z,14.42
2018-06-24T08:24:43.060Z,14.37
2018-06-24T08:25:43.035Z,14.43
2018-06-24T08:26:43.028Z,14.43
2018-06-24T08:27:43.047Z,14.32
2018-06-24T08:28:42.995Z,14.47
2018-06-24T08:29:43.035Z,14.36
2018-06-24T08:30:42.989Z,14.47
2018-06-24T08:31:43.401Z,14.40
2018-06-24T08:32:42.956Z,14.40
2018-06-24T08:33:42.996Z,14.42
2018-06-24T08:34:42.937Z,14.35
2018-06-24T08:35:42.951Z,14.27
2018-06-24T08:36:42.910Z,14.21
2018-06-24T08:37:43.605Z,14.21
2018-06-24T08:38:42.878Z,14.22
2018-06-24T08:39:42.879Z,14.12
2018-06-24T08:40:42.897Z,14.03
2018-06-24T08:41:42.856Z,14.00
2018-06-24T08:42:42.838Z,13.97
2018-06-24T08:43:42.835Z,13.82
2018-06-24T08:44:42.853Z,13.71
2018-06-24T08:45:42.820Z,13.85
2018-06-24T08:46:42.799Z,13.75
2018-06-24T08:47:42.975Z,13.77
2018-06-24T08:48:42.956Z,13.79
2018-06-24T08:49:42.771Z,13.81
2018-06-24T08:50:42.917Z,13.77
2018-06-24T08:51:42.740Z,13.81
2018-06-24T08:52:42.762Z,13.77
2018-06-24T08:53:42.713Z,13.77
2018-06-24T08:54:42.701Z,13.77
2018-06-24T08:55:42.697Z,13.81
2018-06-24T08:56:42.680Z,13.87
2018-06-24T08:57:42.700Z,13.75
2018-06-24T08:58:42.660Z,13.89
2018-06-24T08:59:42.673Z,13.81
2018-06-24T09:00:42.675Z,13.71
2018-06-24T09:01:42.612Z,13.77
2018-06-24T09:02:42.612Z,13.67
2018-06-24T09:03:42.604Z,13.73
2018-06-24T09:04:42.582Z,13.69
2018-06-24T09:05:42.603Z,13.67
2018-06-24T09:06:42.559Z,13.63
2018-06-24T09:07:42.544Z,13.60
2018-06-24T09:08:43.117Z,13.67
2018-06-24T09:09:42.941Z,13.64
2018-06-24T09:10:42.539Z,13.63
2018-06-24T09:11:42.654Z,13.55
2018-06-24T09:12:42.497Z,13.45
2018-06-24T09:13:42.477Z,13.55
2018-06-24T09:14:42.510Z,13.46
2018-06-24T09:15:42.576Z,13.57
2018-06-24T09:16:42.454Z,13.52
2018-06-24T09:17:42.435Z,13.51
2018-06-24T09:18:42.418Z,13.49
2018-06-24T09:19:42.406Z,13.44
2018-06-24T09:20:42.404Z,13.52
2018-06-24T09:21:42.406Z,13.46
2018-06-24T09:22:42.378Z,13.42
2018-06-24T09:23:42.350Z,13.48
2018-06-24T09:24:42.348Z,13.45
2018-06-24T09:25:44.600Z,13.51
2018-06-24T09:26:42.352Z,13.45
2018-06-24T09:27:42.475Z,13.52
2018-06-24T09:28:42.308Z,13.48
2018-06-24T09:29:42.285Z,13.46
2018-06-24T09:30:42.347Z,13.55
2018-06-24T09:31:42.267Z,13.52
2018-06-24T09:32:42.262Z,13.48
2018-06-24T09:33:42.245Z,13.52
2018-06-24T09:34:42.231Z,13.52
2018-06-24T09:35:42.233Z,13.48
2018-06-24T09:36:42.197Z,13.54
2018-06-24T09:37:42.645Z,13.49
2018-06-24T09:38:46.062Z,13.44
2018-06-24T09:39:42.831Z,13.42
2018-06-24T09:40:43.620Z,13.44
2018-06-24T09:41:42.739Z,13.28
2018-06-24T09:42:42.622Z,13.41
2018-06-24T09:43:43.207Z,13.42
2018-06-24T09:44:42.858Z,13.42
2018-06-24T09:45:42.792Z,13.36
2018-06-24T09:46:42.805Z,13.38
2018-06-24T09:47:42.696Z,13.36
2018-06-24T09:48:42.737Z,13.42
2018-06-24T09:49:42.853Z,13.41
2018-06-24T09:50:42.860Z,13.41
2018-06-24T09:51:42.593Z,13.46
2018-06-24T09:52:42.832Z,13.52
2018-06-24T09:53:42.580Z,13.55
2018-06-24T09:54:42.705Z,13.54
2018-06-24T09:55:42.992Z,13.46
2018-06-24T09:56:43.107Z,13.59
2018-06-24T09:57:42.126Z,13.54
2018-06-24T09:58:42.748Z,13.46
2018-06-24T09:59:42.508Z,13.62
2018-06-24T10:00:43.138Z,13.59
2018-06-24T10:01:42.382Z,13.62
2018-06-24T10:02:42.588Z,13.51
2018-06-24T10:03:42.139Z,13.51
2018-06-24T10:04:47.097Z,13.52
2018-06-24T10:05:42.574Z,13.55
2018-06-24T10:06:42.874Z,13.54
2018-06-24T10:07:42.274Z,13.46
2018-06-24T10:08:42.613Z,13.44
2018-06-24T10:09:42.563Z,13.51
2018-06-24T10:10:42.540Z,13.55
2018-06-24T10:11:42.713Z,13.66
2018-06-24T10:12:42.466Z,13.62
2018-06-24T10:13:42.273Z,13.63
2018-06-24T10:14:42.411Z,13.67
2018-06-24T10:15:43.142Z,13.69
2018-06-24T10:16:42.049Z,13.70
2018-06-24T10:17:42.913Z,13.66
2018-06-24T10:18:42.214Z,13.79
2018-06-24T10:19:42.769Z,13.69
2018-06-24T10:20:42.371Z,13.78
2018-06-24T10:21:42.365Z,13.78
2018-06-24T10:22:42.385Z,13.69
2018-06-24T10:23:42.455Z,13.82
2018-06-24T10:24:42.666Z,13.77
2018-06-24T10:25:41.613Z,13.75
2018-06-24T10:26:41.598Z,13.71
2018-06-24T10:27:41.610Z,13.78
2018-06-24T10:28:41.595Z,13.87
2018-06-24T10:29:41.594Z,13.85
2018-06-24T10:30:42.532Z,13.96
2018-06-24T10:31:41.559Z,13.99
2018-06-24T10:32:41.545Z,14.00
2018-06-24T10:33:41.555Z,14.06
2018-06-24T10:34:41.559Z,14.06
2018-06-24T10:35:41.522Z,14.18
2018-06-24T10:36:41.510Z,14.09
2018-06-24T10:37:41.494Z,14.18
2018-06-24T10:38:41.479Z,14.17
2018-06-24T10:39:41.469Z,14.20
2018-06-24T10:40:41.594Z,14.24
2018-06-24T10:41:41.536Z,14.20
2018-06-24T10:42:41.433Z,14.18
2018-06-24T10:43:41.420Z,14.22
2018-06-24T10:44:41.427Z,14.28
2018-06-24T10:45:41.403Z,14.33
2018-06-24T10:46:41.424Z,14.40
2018-06-24T10:47:41.426Z,14.42
2018-06-24T10:48:41.366Z,14.37
2018-06-24T10:49:41.354Z,14.40
2018-06-24T10:50:41.338Z,14.35
2018-06-24T10:51:41.314Z,14.45
2018-06-24T10:52:41.466Z,14.42
2018-06-24T10:53:41.304Z,14.36
2018-06-24T10:54:41.292Z,14.40
2018-06-24T10:55:41.281Z,14.43
2018-06-24T10:56:41.275Z,14.39
2018-06-24T10:57:41.254Z,14.40
2018-06-24T10:58:41.257Z,14.28
2018-06-24T10:59:41.289Z,14.37
2018-06-24T11:00:41.234Z,14.32
2018-06-24T11:01:41.220Z,14.45
2018-06-24T11:02:41.261Z,14.42
2018-06-24T11:03:41.198Z,14.40
2018-06-24T11:04:41.187Z,14.51
2018-06-24T11:05:41.178Z,14.47
2018-06-24T11:06:41.168Z,14.43
2018-06-24T11:07:41.157Z,14.46
2018-06-24T11:08:41.150Z,14.39
2018-06-24T11:09:41.148Z,14.45
2018-06-24T11:10:41.120Z,14.45
2018-06-24T11:11:41.104Z,14.39
2018-06-24T11:12:41.092Z,14.37
2018-06-24T11:13:41.073Z,14.45
2018-06-24T11:14:41.075Z,14.37
2018-06-24T11:15:41.085Z,14.46
2018-06-24T11:16:41.051Z,14.47
2018-06-24T11:17:41.036Z,14.47
2018-06-24T11:18:41.023Z,14.50
2018-06-24T11:19:41.020Z,14.43
2018-06-24T11:20:41.009Z,14.43
2018-06-24T11:21:40.993Z,14.47
2018-06-24T11:22:40.972Z,14.37
2018-06-24T11:23:40.964Z,14.42
2018-06-24T11:24:41.699Z,14.37
2018-06-24T11:25:40.951Z,14.43
2018-06-24T11:26:40.937Z,14.40
2018-06-24T11:27:40.923Z,14.42
2018-06-24T11:28:40.913Z,14.39
2018-06-24T11:29:40.897Z,14.57
2018-06-24T11:30:40.898Z,14.52
2018-06-24T11:31:40.876Z,14.46
2018-06-24T11:32:40.865Z,14.54
2018-06-24T11:33:40.848Z,14.45
2018-06-24T11:34:40.843Z,14.50
2018-06-24T11:35:41.186Z,14.43
2018-06-24T11:36:40.822Z,14.47
2018-06-24T11:37:40.812Z,14.55
2018-06-24T11:38:40.791Z,14.57
2018-06-24T11:39:40.806Z,14.54
2018-06-24T11:40:40.767Z,14.62
2018-06-24T11:41:40.822Z,14.68
2018-06-24T11:42:40.763Z,14.68
2018-06-24T11:43:40.747Z,14.69
2018-06-24T11:44:40.730Z,14.68
2018-06-24T11:45:40.714Z,14.75
2018-06-24T11:46:40.706Z,14.73
2018-06-24T11:47:40.734Z,14.80
2018-06-24T11:48:40.679Z,14.73
2018-06-24T11:49:40.689Z,14.84
2018-06-24T11:50:40.668Z,14.91
2018-06-24T11:51:40.667Z,14.83
2018-06-24T11:52:40.662Z,15.02
2018-06-24T11:53:40.680Z,14.96
2018-06-24T11:54:40.616Z,15.01
2018-06-24T11:55:40.608Z,15.06
2018-06-24T11:56:40.617Z,15.01
2018-06-24T11:57:40.606Z,14.98
2018-06-24T11:58:40.585Z,15.03
2018-06-24T11:59:40.602Z,15.06
2018-06-24T12:00:40.866Z,14.98
2018-06-24T12:01:40.548Z,14.96
2018-06-24T12:02:40.580Z,14.84
2018-06-24T12:03:40.550Z,14.92
2018-06-24T12:04:40.514Z,14.88
2018-06-24T12:05:40.498Z,14.86
2018-06-24T12:06:40.498Z,14.89
2018-06-24T12:07:40.476Z,14.84
2018-06-24T12:08:40.511Z,14.80
2018-06-24T12:09:40.518Z,14.94
2018-06-24T12:10:40.495Z,14.89
2018-06-24T12:11:40.436Z,14.83
2018-06-24T12:12:40.436Z,14.88
2018-06-24T12:13:40.548Z,14.89
2018-06-24T12:14:40.404Z,14.89
2018-06-24T12:15:40.397Z,14.94
2018-06-24T12:16:40.380Z,14.99
2018-06-24T12:17:40.374Z,14.89
2018-06-24T12:18:40.378Z,14.96
2018-06-24T12:19:40.421Z,14.94
2018-06-24T12:20:40.334Z,14.98
2018-06-24T12:21:40.327Z,15.07
2018-06-24T12:22:40.317Z,14.99
2018-06-24T12:23:40.308Z,14.95
2018-06-24T12:24:40.302Z,14.98
2018-06-24T12:25:40.426Z,15.02
2018-06-24T12:26:40.267Z,14.99
2018-06-24T12:27:40.262Z,15.01
2018-06-24T12:28:40.258Z,14.98
2018-06-24T12:29:40.233Z,14.99
2018-06-24T12:30:40.291Z,15.01
2018-06-24T12:31:40.252Z,14.94
2018-06-24T12:32:40.206Z,14.96
2018-06-24T12:33:40.195Z,14.98
2018-06-24T12:34:40.186Z,14.95
2018-06-24T12:35:40.217Z,14.95
2018-06-24T12:36:40.160Z,14.98
2018-06-24T12:37:40.153Z,14.96
2018-06-24T12:38:40.147Z,15.03
2018-06-24T12:39:40.175Z,14.99
2018-06-24T12:40:40.164Z,15.09
2018-06-24T12:41:40.106Z,15.03
2018-06-24T12:42:40.101Z,14.96
2018-06-24T12:43:40.088Z,15.02
2018-06-24T12:44:40.074Z,15.17
2018-06-24T12:45:40.129Z,14.98
2018-06-24T12:46:40.055Z,15.01
2018-06-24T12:47:40.031Z,15.06
2018-06-24T12:48:40.726Z,15.13
2018-06-24T12:49:40.025Z,14.98
2018-06-24T12:50:40.058Z,14.99
2018-06-24T12:51:40.128Z,14.95
2018-06-24T12:52:40.020Z,15.01